createdAt,value
2018-06-21T00:00:58.792Z,9.25
2018-06-21T00:05:59.068Z,9.50
2018-06-21T00:08:30.600Z,8.75
2018-06-21T00:11:01.884Z,8.75
2018-06-21T00:13:34.570Z,9.25
2018-06-21T00:16:06.015Z,7.75
2018-06-21T00:18:42.496Z,7.75
2018-06-21T00:21:13.493Z,8.75
2018-06-21T00:23:43.853Z,8.00
2018-06-21T00:26:14.492Z,8.25
2018-06-21T00:28:44.852Z,8.75
2018-06-21T00:31:16.655Z,7.75
2018-06-21T00:33:47.071Z,8.75
2018-06-21T00:36:20.473Z,9.00
2018-06-21T00:38:50.753Z,10.00
2018-06-21T00:41:20.982Z,9.00
2018-06-21T00:43:51.892Z,8.75
2018-06-21T00:46:23.197Z,11.25
2018-06-21T00:48:53.564Z,11.25
2018-06-21T00:51:24.128Z,15.25
2018-06-21T00:53:54.496Z,12.00
2018-06-21T00:56:25.112Z,10.00
2018-06-21T00:58:55.429Z,9.00
2018-06-21T01:01:26.850Z,10.00
2018-06-21T01:03:57.766Z,11.25
2018-06-21T01:06:28.108Z,10.50
2018-06-21T01:08:58.517Z,9.25
2018-06-21T01:11:29.205Z,9.25
2018-06-21T01:13:59.620Z,10.25
2018-06-21T01:16:30.118Z,10.00
2018-06-21T01:19:01.893Z,10.00
2018-06-21T01:25:12.568Z,9.25
2018-06-21T01:27:43.806Z,9.75
2018-06-21T01:30:16.392Z,9.75
2018-06-21T01:32:47.867Z,11.00
2018-06-21T01:35:20.449Z,9.50
2018-06-21T01:38:04.027Z,10.25
2018-06-21T01:40:34.786Z,9.00
2018-06-21T01:43:05.843Z,11.50
2018-06-21T01:45:37.507Z,10.25
2018-06-21T01:48:09.263Z,9.50
2018-06-21T01:50:39.864Z,9.75
2018-06-21T01:53:10.435Z,9.25
2018-06-21T01:55:40.850Z,10.00
2018-06-21T01:58:11.784Z,10.00
2018-06-21T02:00:42.760Z,9.75
2018-06-21T02:03:16.891Z,9.00
2018-06-21T02:05:47.239Z,11.00
2018-06-21T02:08:17.570Z,10.00
2018-06-21T02:10:48.578Z,10.25
2018-06-21T02:13:19.641Z,10.00
2018-06-21T02:18:20.423Z,10.00
2018-06-21T02:20:56.002Z,9.25
2018-06-21T02:26:07.471Z,9.50
2018-06-21T02:28:38.926Z,8.50
2018-06-21T02:31:09.789Z,10.00
2018-06-21T02:33:40.833Z,9.50
2018-06-21T02:36:11.355Z,9.50
2018-06-21T02:38:41.743Z,10.00
2018-06-21T02:41:12.292Z,9.00
2018-06-21T02:43:43.036Z,8.25
2018-06-21T02:46:13.958Z,9.00
2018-06-21T02:48:45.434Z,8.00
2018-06-21T02:51:15.896Z,8.00
2018-06-21T02:53:48.127Z,8.25
2018-06-21T02:56:18.947Z,9.00
2018-06-21T02:58:49.369Z,8.75
2018-06-21T03:01:20.577Z,9.00
2018-06-21T03:03:52.097Z,7.50
2018-06-21T03:06:23.891Z,8.00
2018-06-21T03:08:55.392Z,8.75
2018-06-21T03:11:26.535Z,8.75
2018-06-21T03:13:57.768Z,8.25
2018-06-21T03:16:30.573Z,9.00
2018-06-21T03:19:02.604Z,9.50
2018-06-21T03:21:33.330Z,8.00
2018-06-21T03:24:04.405Z,9.50
2018-06-21T03:26:37.066Z,9.00
2018-06-21T03:29:07.304Z,9.00
2018-06-21T03:31:38.742Z,9.00
2018-06-21T03:34:09.460Z,9.50
2018-06-21T03:36:40.626Z,9.00
2018-06-21T03:39:10.985Z,9.00
2018-06-21T03:41:41.769Z,8.00
2018-06-21T03:44:12.093Z,9.25
2018-06-21T03:46:49.223Z,7.00
2018-06-21T03:49:19.497Z,8.50
2018-06-21T03:51:50.762Z,7.75
2018-06-21T03:54:21.721Z,8.50
2018-06-21T03:56:52.796Z,7.25
2018-06-21T03:59:23.044Z,9.25
2018-06-21T04:01:53.791Z,7.75
2018-06-21T04:04:25.297Z,9.25
2018-06-21T04:06:55.709Z,6.75
2018-06-21T04:09:26.196Z,8.00
2018-06-21T04:11:57.518Z,8.00
2018-06-21T04:14:34.677Z,7.00
2018-06-21T04:17:05.586Z,8.25
2018-06-21T04:19:36.560Z,8.00
2018-06-21T04:22:09.235Z,8.00
2018-06-21T04:24:44.424Z,7.00
2018-06-21T04:27:18.627Z,7.00
2018-06-21T04:29:55.351Z,7.00
2018-06-21T04:32:27.295Z,8.00
2018-06-21T04:34:59.144Z,8.00
2018-06-21T04:37:29.551Z,8.75
2018-06-21T04:40:02.265Z,7.00
2018-06-21T04:42:32.522Z,8.75
2018-06-21T04:45:05.719Z,8.00
2018-06-21T04:47:36.637Z,8.00
2018-06-21T04:50:07.818Z,8.25
2018-06-21T04:52:38.252Z,7.00
2018-06-21T04:55:10.613Z,8.25
2018-06-21T04:57:43.043Z,8.25
2018-06-21T05:00:18.339Z,8.50
2018-06-21T05:02:49.587Z,8.00
2018-06-21T05:05:20.451Z,9.25
2018-06-21T05:07:52.122Z,8.00
2018-06-21T05:10:22.865Z,8.50
2018-06-21T05:12:53.416Z,11.75
2018-06-21T05:15:25.482Z,13.00
2018-06-21T05:18:10.530Z,14.00
2018-06-21T05:20:41.265Z,13.25
2018-06-21T05:23:13.052Z,15.00
2018-06-21T05:25:44.574Z,14.50
2018-06-21T05:28:16.941Z,14.25
2018-06-21T05:30:49.743Z,15.50
2018-06-21T05:33:21.693Z,15.00
2018-06-21T05:35:54.904Z,16.00
2018-06-21T05:38:27.230Z,15.50
2018-06-21T05:40:57.786Z,17.00
2018-06-21T05:43:29.693Z,15.75
2018-06-21T05:46:01.710Z,16.50
2018-06-21T05:48:31.889Z,18.00
2018-06-21T05:51:05.215Z,18.00
2018-06-21T05:53:36.106Z,19.00
2018-06-21T05:56:07.075Z,18.00
2018-06-21T05:58:38.130Z,20.00
2018-06-21T06:01:10.696Z,17.75
2018-06-21T06:03:43.540Z,18.75
2018-06-21T06:06:15.098Z,19.25
2018-06-21T06:08:47.257Z,17.75
2018-06-21T06:11:17.756Z,18.75
2018-06-21T06:13:50.650Z,20.75
2018-06-21T06:16:21.228Z,18.75
2018-06-21T06:18:51.806Z,17.25
2018-06-21T06:21:28.254Z,18.75
2018-06-21T06:23:59.744Z,19.50
2018-06-21T06:26:30.219Z,17.25
2018-06-21T06:29:02.242Z,16.75
2018-06-21T06:31:33.507Z,17.75
2018-06-21T06:34:03.927Z,18.00
2018-06-21T06:36:38.583Z,17.75
2018-06-21T06:39:21.288Z,14.75
2018-06-21T06:41:53.046Z,16.50
2018-06-21T06:44:24.127Z,18.00
2018-06-21T06:46:57.143Z,14.00
2018-06-21T06:49:27.702Z,17.25
2018-06-21T06:51:59.687Z,14.50
2018-06-21T06:54:30.605Z,14.75
2018-06-21T06:57:01.941Z,13.75
2018-06-21T06:59:47.793Z,14.25
2018-06-21T07:02:18.447Z,14.75
2018-06-21T07:05:03.580Z,15.75
2018-06-21T07:07:36.698Z,12.75
2018-06-21T07:10:08.488Z,16.00
2018-06-21T07:12:38.901Z,14.00
2018-06-21T07:15:14.189Z,16.00
2018-06-21T07:17:44.854Z,16.75
2018-06-21T07:20:15.482Z,17.75
2018-06-21T07:23:02.522Z,14.25
2018-06-21T07:25:33.658Z,17.00
2018-06-21T07:28:05.681Z,15.75
2018-06-21T07:30:36.384Z,15.50
2018-06-21T07:33:09.246Z,14.75
2018-06-21T07:35:41.007Z,15.75
2018-06-21T07:38:11.293Z,16.25
2018-06-21T07:40:43.339Z,14.00
2018-06-21T07:43:13.987Z,17.25
2018-06-21T07:45:45.220Z,16.25
2018-06-21T07:48:18.757Z,17.25
2018-06-21T07:53:46.167Z,12.00
2018-06-21T07:56:26.618Z,10.50
2018-06-21T07:59:06.583Z,10.50
2018-06-21T08:01:46.259Z,10.75
2018-06-21T08:04:18.710Z,8.50
2018-06-21T08:06:51.482Z,8.00
2018-06-21T08:09:27.228Z,8.00
2018-06-21T08:11:58.034Z,9.25
2018-06-21T08:14:29.561Z,9.00
2018-06-21T08:17:00.420Z,9.00
2018-06-21T08:19:31.877Z,7.75
2018-06-21T08:22:04.412Z,7.00
2018-06-21T08:24:35.022Z,6.50
2018-06-21T08:27:07.703Z,7.25
2018-06-21T08:29:38.019Z,8.00
2018-06-21T08:32:10.697Z,8.75
2018-06-21T08:34:41.931Z,7.00
2018-06-21T08:37:13.354Z,8.00
2018-06-21T08:39:43.577Z,7.75
2018-06-21T08:42:14.837Z,5.75
2018-06-21T08:44:48.415Z,7.00
2018-06-21T08:47:19.965Z,7.00
2018-06-21T08:49:53.412Z,6.50
2018-06-21T08:52:24.649Z,5.50
2018-06-21T08:54:58.270Z,5.00
2018-06-21T08:57:30.178Z,6.00
2018-06-21T09:00:00.528Z,8.00
2018-06-21T09:02:40.136Z,7.50
2018-06-21T09:05:11.542Z,6.00
2018-06-21T09:07:49.286Z,5.75
2018-06-21T09:10:24.399Z,5.75
2018-06-21T09:12:58.680Z,6.00
2018-06-21T09:15:31.736Z,5.75
2018-06-21T09:18:02.625Z,5.00
2018-06-21T09:20:35.819Z,5.25
2018-06-21T09:23:10.834Z,6.00
2018-06-21T09:25:42.530Z,5.00
2018-06-21T09:28:16.418Z,6.00
2018-06-21T09:30:49.851Z,6.75
2018-06-21T09:33:23.807Z,5.00
2018-06-21T09:35:56.225Z,6.00
2018-06-21T09:38:32.974Z,5.25
2018-06-21T09:41:09.204Z,5.00
2018-06-21T09:43:50.294Z,5.00
2018-06-21T09:46:33.878Z,4.00
2018-06-21T09:49:03.502Z,4.00
2018-06-21T09:54:13.389Z,5.00
2018-06-21T09:56:46.822Z,5.00
2018-06-21T09:59:21.064Z,5.00
2018-06-21T10:01:55.994Z,3.75
2018-06-21T10:04:27.732Z,5.00
2018-06-21T10:07:02.114Z,5.25
2018-06-21T10:09:41.541Z,4.00
2018-06-21T10:12:23.623Z,4.00
2018-06-21T10:14:55.522Z,4.75
2018-06-21T10:17:28.435Z,5.00
2018-06-21T10:19:59.864Z,5.00
2018-06-21T10:22:35.791Z,5.00
2018-06-21T10:25:19.694Z,5.50
2018-06-21T10:30:42.178Z,4.00
2018-06-21T10:33:20.465Z,6.00
2018-06-21T10:35:54.765Z,4.25
2018-06-21T10:38:31.047Z,3.75
2018-06-21T10:41:05.179Z,3.75
2018-06-21T10:43:39.083Z,3.00
2018-06-21T10:46:29.756Z,3.75
2018-06-21T10:49:06.534Z,4.00
2018-06-21T10:51:38.600Z,2.75
2018-06-21T10:54:10.667Z,4.50
2018-06-21T10:56:46.747Z,4.00
2018-06-21T10:59:21.191Z,3.75
2018-06-21T11:01:55.571Z,2.25
2018-06-21T11:04:27.416Z,3.00
2018-06-21T11:07:02.739Z,3.75
2018-06-21T11:09:37.819Z,3.00
2018-06-21T11:12:12.420Z,1.00
2018-06-21T11:14:43.918Z,2.00
2018-06-21T11:17:15.598Z,1.75
2018-06-21T11:19:51.522Z,2.50
2018-06-21T11:22:24.657Z,1.75
2018-06-21T11:27:32.792Z,1.50
2018-06-21T11:30:22.330Z,2.00
2018-06-21T11:32:53.422Z,1.75
2018-06-21T11:35:26.381Z,0.25
2018-06-21T11:38:19.526Z,1.25
2018-06-21T11:40:52.932Z,1.00
2018-06-21T11:43:25.237Z,1.50
2018-06-21T11:45:59.317Z,1.25
2018-06-21T11:48:35.592Z,1.25
2018-06-21T11:51:18.107Z,2.00
2018-06-21T11:53:52.473Z,0.25
2018-06-21T11:56:23.386Z,1.00
2018-06-21T11:58:55.743Z,1.25
2018-06-21T12:01:30.413Z,0.25
2018-06-21T12:06:42.263Z,1.50
2018-06-21T12:09:16.917Z,0.25
2018-06-21T12:11:49.100Z,1.25
2018-06-21T12:14:23.436Z,1.75
2018-06-21T12:19:18.210Z,1.25
2018-06-21T12:21:49.046Z,1.25
2018-06-21T12:24:21.629Z,1.25
2018-06-21T12:26:55.360Z,1.25
2018-06-21T12:29:29.307Z,1.25
2018-06-21T12:32:02.507Z,0.25
2018-06-21T12:34:44.490Z,1.00
2018-06-21T12:37:19.825Z,1.50
2018-06-21T12:39:51.493Z,1.75
2018-06-21T12:42:30.012Z,1.75
2018-06-21T12:47:58.657Z,0.25
2018-06-21T12:50:31.330Z,1.00
2018-06-21T12:53:04.800Z,1.25
2018-06-21T12:55:39.274Z,0.75
2018-06-21T12:58:11.171Z,1.75
2018-06-21T13:00:44.556Z,1.25
2018-06-21T13:03:16.422Z,1.75
2018-06-21T13:05:55.240Z,0.50
2018-06-21T13:08:38.625Z,1.00
2018-06-21T13:11:42.642Z,1.75
2018-06-21T13:14:26.383Z,0.75
2018-06-21T13:17:04.018Z,0.75
2018-06-21T13:19:34.452Z,0.75
2018-06-21T13:22:09.058Z,0.75
2018-06-21T13:24:45.165Z,3.00
2018-06-21T13:27:27.319Z,3.00
2018-06-21T13:30:00.611Z,0.25
2018-06-21T13:32:36.893Z,0.25
2018-06-21T13:35:13.781Z,0.50
2018-06-21T13:37:44.689Z,0.75
2018-06-21T13:40:21.312Z,0.50
2018-06-21T13:42:59.526Z,1.50
2018-06-21T13:45:34.631Z,1.00
2018-06-21T13:48:14.300Z,0.50
2018-06-21T13:50:49.498Z,1.00
2018-06-21T13:53:28.163Z,1.50
2018-06-21T13:55:59.949Z,1.00
2018-06-21T13:58:35.124Z,1.50
2018-06-21T14:01:21.329Z,1.00
2018-06-21T14:04:01.095Z,1.75
2018-06-21T14:06:36.951Z,0.00
2018-06-21T14:12:03.714Z,1.75
2018-06-21T14:14:41.826Z,1.00
2018-06-21T14:17:32.381Z,1.50
2018-06-21T14:20:04.369Z,1.00
2018-06-21T14:22:39.208Z,1.75
2018-06-21T14:25:10.401Z,1.00
2018-06-21T14:27:42.027Z,1.25
2018-06-21T14:30:19.629Z,1.25
2018-06-21T14:32:57.636Z,1.50
2018-06-21T14:35:30.508Z,2.00
2018-06-21T14:38:07.098Z,2.00
2018-06-21T14:40:42.775Z,1.25
2018-06-21T14:43:14.290Z,2.00
2018-06-21T14:48:36.700Z,1.75
2018-06-21T14:51:07.516Z,2.00
2018-06-21T14:53:41.639Z,2.00
2018-06-21T14:56:14.422Z,2.00
2018-06-21T14:58:49.085Z,2.00
2018-06-21T15:01:22.473Z,1.50
2018-06-21T15:03:54.379Z,1.50
2018-06-21T15:06:25.475Z,1.25
2018-06-21T15:08:56.400Z,1.00
2018-06-21T15:11:28.051Z,3.00
2018-06-21T15:14:01.530Z,2.00
2018-06-21T15:16:35.733Z,2.00
2018-06-21T15:19:06.003Z,1.00
2018-06-21T15:21:36.837Z,1.25
2018-06-21T15:24:07.314Z,2.00
2018-06-21T15:26:37.566Z,1.00
2018-06-21T15:29:24.486Z,1.00
2018-06-21T15:31:59.304Z,1.50
2018-06-21T15:34:33.235Z,1.00
2018-06-21T15:37:04.236Z,2.00
2018-06-21T15:39:36.532Z,2.00
2018-06-21T15:42:07.667Z,1.50
2018-06-21T15:44:38.710Z,2.00
2018-06-21T15:47:13.730Z,2.00
2018-06-21T15:49:48.298Z,1.00
2018-06-21T15:52:20.133Z,3.00
2018-06-21T15:54:51.440Z,2.00
2018-06-21T15:57:25.616Z,2.00
2018-06-21T15:59:59.672Z,1.25
2018-06-21T16:02:34.014Z,2.00
2018-06-21T16:05:07.237Z,2.00
2018-06-21T16:07:42.629Z,2.00
2018-06-21T16:10:15.519Z,2.00
2018-06-21T16:12:46.246Z,2.00
2018-06-21T16:15:23.136Z,2.00
2018-06-21T16:17:55.746Z,2.00
2018-06-21T16:20:29.927Z,2.00
2018-06-21T16:23:01.505Z,2.00
2018-06-21T16:25:35.984Z,2.00
2018-06-21T16:28:13.552Z,2.00
2018-06-21T16:30:48.121Z,2.00
2018-06-21T16:33:28.240Z,2.00
2018-06-21T16:36:01.223Z,2.00
2018-06-21T16:38:33.447Z,2.00
2018-06-21T16:41:05.216Z,1.00
2018-06-21T16:43:35.591Z,2.00
2018-06-21T16:46:13.182Z,2.00
2018-06-21T16:48:47.372Z,1.25
2018-06-21T16:51:18.897Z,1.50
2018-06-21T16:53:52.854Z,1.00
2018-06-21T16:56:26.511Z,1.50
2018-06-21T16:59:03.523Z,1.00
2018-06-21T17:01:38.094Z,1.25
2018-06-21T17:04:13.070Z,1.00
2018-06-21T17:07:08.289Z,2.00
2018-06-21T17:09:46.879Z,1.00
2018-06-21T17:12:17.717Z,1.00
2018-06-21T17:14:48.881Z,1.00
2018-06-21T17:17:23.062Z,1.00
2018-06-21T17:20:13.904Z,1.50
2018-06-21T17:22:50.317Z,1.75
2018-06-21T17:25:21.747Z,2.00
2018-06-21T17:28:46.532Z,1.00
2018-06-21T17:31:25.250Z,1.00
2018-06-21T17:33:56.155Z,2.00
2018-06-21T17:36:33.191Z,2.00
2018-06-21T17:39:06.853Z,1.25
2018-06-21T17:41:45.604Z,2.00
2018-06-21T17:44:21.583Z,1.75
2018-06-21T17:46:54.686Z,2.00
2018-06-21T17:49:31.398Z,1.75
2018-06-21T17:52:02.813Z,1.50
2018-06-21T17:54:34.786Z,1.50
2018-06-21T17:57:06.673Z,2.00
2018-06-21T17:59:43.878Z,2.00
2018-06-21T18:02:16.489Z,2.25
2018-06-21T18:04:49.451Z,2.00
2018-06-21T18:07:21.301Z,1.00
2018-06-21T18:09:52.531Z,2.00
2018-06-21T18:12:26.381Z,1.25
2018-06-21T18:17:50.753Z,2.00
2018-06-21T18:20:22.232Z,1.00
2018-06-21T18:23:13.411Z,1.00
2018-06-21T18:25:47.291Z,1.25
2018-06-21T18:28:24.533Z,1.00
2018-06-21T18:30:57.819Z,1.25
2018-06-21T18:33:34.421Z,1.50
2018-06-21T18:36:06.974Z,1.25
2018-06-21T18:38:37.986Z,1.00
2018-06-21T18:41:11.483Z,3.00
2018-06-21T18:43:50.269Z,2.00
2018-06-21T18:46:23.511Z,1.00
2018-06-21T18:48:54.664Z,2.00
2018-06-21T18:51:26.152Z,1.00
2018-06-21T18:53:57.722Z,1.00
2018-06-21T18:56:28.455Z,1.00
2018-06-21T18:59:01.049Z,1.00
2018-06-21T19:01:35.212Z,1.00
2018-06-21T19:04:11.040Z,1.00
2018-06-21T19:06:47.525Z,1.75
2018-06-21T19:09:25.389Z,0.75
2018-06-21T19:12:06.145Z,1.00
2018-06-21T19:14:37.374Z,1.75
2018-06-21T19:17:10.335Z,1.00
2018-06-21T19:19:43.716Z,2.00
2018-06-21T19:22:16.052Z,1.75
2018-06-21T19:24:49.185Z,1.00
2018-06-21T19:27:28.661Z,2.00
2018-06-21T19:30:14.989Z,0.75
2018-06-21T19:32:48.254Z,1.00
2018-06-21T19:35:20.762Z,2.00
2018-06-21T19:37:52.676Z,1.00
2018-06-21T19:43:01.354Z,2.00
2018-06-21T19:45:44.037Z,2.00
2018-06-21T19:48:43.385Z,2.00
2018-06-21T19:51:17.634Z,1.00
2018-06-21T19:53:53.021Z,2.00
2018-06-21T19:56:27.164Z,2.00
2018-06-21T19:59:01.762Z,2.00
2018-06-21T20:01:50.789Z,2.00
2018-06-21T20:04:23.443Z,2.00
2018-06-21T20:06:57.958Z,3.00
2018-06-21T20:09:29.499Z,2.25
2018-06-21T20:12:02.215Z,2.00
2018-06-21T20:14:37.570Z,2.00
2018-06-21T20:17:12.229Z,2.00
2018-06-21T20:19:59.283Z,1.75
2018-06-21T20:22:32.223Z,2.00
2018-06-21T20:25:09.461Z,2.00
2018-06-21T20:27:40.459Z,2.00
2018-06-21T20:30:14.082Z,2.00
2018-06-21T20:32:54.057Z,1.75
2018-06-21T20:35:28.233Z,1.50
2018-06-21T20:38:08.451Z,2.00
2018-06-21T20:40:45.885Z,2.00
2018-06-21T20:43:19.464Z,2.50
2018-06-21T20:45:51.294Z,1.75
2018-06-21T20:48:30.086Z,2.00
2018-06-21T20:51:07.310Z,2.00
2018-06-21T20:53:37.925Z,1.00
2018-06-21T20:56:10.166Z,1.25
2018-06-21T20:58:43.275Z,2.00
2018-06-21T21:01:19.125Z,1.00
2018-06-21T21:03:52.016Z,1.00
2018-06-21T21:06:27.303Z,1.00
2018-06-21T21:09:12.665Z,2.00
2018-06-21T21:11:46.330Z,1.00
2018-06-21T21:14:21.388Z,1.00
2018-06-21T21:16:54.398Z,1.00
2018-06-21T21:19:28.063Z,1.00
2018-06-21T21:22:00.237Z,1.00
2018-06-21T21:24:32.377Z,1.50
2018-06-21T21:27:07.026Z,2.00
2018-06-21T21:30:09.315Z,1.00
2018-06-21T21:32:46.202Z,1.00
2018-06-21T21:35:18.630Z,2.00
2018-06-21T21:37:50.794Z,1.25
2018-06-21T21:40:37.395Z,1.00
2018-06-21T21:43:08.386Z,1.00
2018-06-21T21:45:49.342Z,1.50
2018-06-21T21:48:33.780Z,1.50
2018-06-21T21:51:05.970Z,2.00
2018-06-21T21:53:45.684Z,2.25
2018-06-21T21:59:35.011Z,2.00
2018-06-21T22:02:09.691Z,2.00
2018-06-21T22:04:44.917Z,1.00
2018-06-21T22:07:17.953Z,2.50
2018-06-21T22:09:52.694Z,2.00
2018-06-21T22:12:28.535Z,1.00
2018-06-21T22:15:00.483Z,2.25
2018-06-21T22:17:34.334Z,1.00
2018-06-21T22:20:07.676Z,1.00
2018-06-21T22:22:39.276Z,1.00
2018-06-21T22:25:15.202Z,1.00
2018-06-21T22:27:46.737Z,1.00
2018-06-21T22:33:09.401Z,1.00
2018-06-21T22:35:40.736Z,2.00
2018-06-21T22:38:15.322Z,1.00
2018-06-21T22:40:54.266Z,1.25
2018-06-21T22:43:31.102Z,1.00
2018-06-21T22:46:06.088Z,1.00
2018-06-21T22:48:40.180Z,1.25
2018-06-21T22:51:14.390Z,1.00
2018-06-21T22:53:46.056Z,1.00
2018-06-21T22:56:21.103Z,1.00
2018-06-21T22:58:55.458Z,1.00
2018-06-21T23:01:28.872Z,2.00
2018-06-21T23:04:10.162Z,1.00
2018-06-21T23:06:43.938Z,1.75
2018-06-21T23:09:16.638Z,1.00
2018-06-21T23:11:48.221Z,2.00
2018-06-21T23:14:23.098Z,1.75
2018-06-21T23:17:01.633Z,2.00
2018-06-21T23:22:10.740Z,1.00
2018-06-21T23:24:43.612Z,1.00
2018-06-21T23:27:14.723Z,1.00
2018-06-21T23:29:45.271Z,1.50
2018-06-21T23:32:24.575Z,2.00
2018-06-21T23:34:55.322Z,2.00
2018-06-21T23:37:26.555Z,1.25
2018-06-21T23:39:57.264Z,1.75
2018-06-21T23:42:28.701Z,2.25
2018-06-21T23:45:00.254Z,1.75
2018-06-21T23:47:40.318Z,1.00
2018-06-21T23:50:10.691Z,2.00
2018-06-21T23:52:41.346Z,2.00
2018-06-21T23:55:13.210Z,1.00
2018-06-21T23:57:45.213Z,2.75
